sensor_id;sensor_type;location;lat;lon;timestamp;P1;durP1;ratioP1;P2;durP2;ratioP2
20084;SDS011;10202;48.474;9.138;2023-04-08T00:01:57;9.10;;;5.10;;
20084;SDS011;10202;48.474;9.138;2023-04-08T00:04:25;7.15;;;5.40;;
20084;SDS011;10202;48.474;9.138;2023-04-08T00:06:56;8.75;;;5.20;;
20084;SDS011;10202;48.474;9.138;2023-04-08T00:09:24;7.28;;;5.13;;
20084;SDS011;10202;48.474;9.138;2023-04-08T00:11:50;7.60;;;5.07;;
20084;SDS011;10202;48.474;9.138;2023-04-08T00:14:16;9.40;;;5.20;;
20084;SDS011;10202;48.474;9.138;2023-04-08T00:16:44;6.25;;;5.13;;
20084;SDS011;10202;48.474;9.138;2023-04-08T00:19:12;6.03;;;5.05;;
20084;SDS011;10202;48.474;9.138;2023-04-08T00:21:37;7.65;;;5.72;;
20084;SDS011;10202;48.474;9.138;2023-04-08T00:24:06;5.53;;;4.88;;
20084;SDS011;10202;48.474;9.138;2023-04-08T00:26:34;12.85;;;5.20;;
20084;SDS011;10202;48.474;9.138;2023-04-08T00:28:59;6.70;;;5.38;;
20084;SDS011;10202;48.474;9.138;2023-04-08T00:31:30;6.90;;;5.22;;
20084;SDS011;10202;48.474;9.138;2023-04-08T00:33:58;7.38;;;5.10;;
20084;SDS011;10202;48.474;9.138;2023-04-08T00:36:26;8.85;;;5.63;;
20084;SDS011;10202;48.474;9.138;2023-04-08T00:38:52;8.05;;;5.55;;
20084;SDS011;10202;48.474;9.138;2023-04-08T00:41:20;7.50;;;5.60;;
20084;SDS011;10202;48.474;9.138;2023-04-08T00:43:46;7.45;;;5.75;;
20084;SDS011;10202;48.474;9.138;2023-04-08T00:46:11;6.57;;;5.55;;
20084;SDS011;10202;48.474;9.138;2023-04-08T00:48:39;7.50;;;5.57;;
20084;SDS011;10202;48.474;9.138;2023-04-08T00:51:09;7.57;;;5.60;;
20084;SDS011;10202;48.474;9.138;2023-04-08T00:53:36;7.75;;;5.78;;
20084;SDS011;10202;48.474;9.138;2023-04-08T00:56:02;10.52;;;5.50;;
20084;SDS011;10202;48.474;9.138;2023-04-08T00:58:28;7.38;;;5.43;;
20084;SDS011;10202;48.474;9.138;2023-04-08T01:00:59;7.50;;;5.60;;
20084;SDS011;10202;48.474;9.138;2023-04-08T01:06:21;8.50;;;5.53;;
20084;SDS011;10202;48.474;9.138;2023-04-08T01:09:18;6.80;;;5.60;;
20084;SDS011;10202;48.474;9.138;2023-04-08T01:11:45;11.50;;;6.28;;
20084;SDS011;10202;48.474;9.138;2023-04-08T01:14:19;7.82;;;5.65;;
20084;SDS011;10202;48.474;9.138;2023-04-08T01:16:46;8.35;;;6.00;;
20084;SDS011;10202;48.474;9.138;2023-04-08T01:19:15;7.22;;;5.65;;
20084;SDS011;10202;48.474;9.138;2023-04-08T01:21:49;7.32;;;5.90;;
20084;SDS011;10202;48.474;9.138;2023-04-08T01:24:35;8.90;;;5.93;;
20084;SDS011;10202;48.474;9.138;2023-04-08T01:27:05;7.50;;;6.00;;
20084;SDS011;10202;48.474;9.138;2023-04-08T01:29:31;8.40;;;5.90;;
20084;SDS011;10202;48.474;9.138;2023-04-08T01:31:59;8.80;;;6.25;;
20084;SDS011;10202;48.474;9.138;2023-04-08T01:34:31;8.02;;;6.00;;
20084;SDS011;10202;48.474;9.138;2023-04-08T01:37:02;8.45;;;6.28;;
20084;SDS011;10202;48.474;9.138;2023-04-08T01:39:28;8.38;;;6.70;;
20084;SDS011;10202;48.474;9.138;2023-04-08T01:41:54;7.82;;;6.03;;
20084;SDS011;10202;48.474;9.138;2023-04-08T01:44:20;10.18;;;6.13;;
20084;SDS011;10202;48.474;9.138;2023-04-08T01:46:49;7.57;;;5.90;;
20084;SDS011;10202;48.474;9.138;2023-04-08T01:49:17;15.40;;;8.45;;
20084;SDS011;10202;48.474;9.138;2023-04-08T01:51:44;10.70;;;7.78;;
20084;SDS011;10202;48.474;9.138;2023-04-08T01:54:16;9.93;;;7.75;;
20084;SDS011;10202;48.474;9.138;2023-04-08T01:56:44;9.45;;;7.85;;
20084;SDS011;10202;48.474;9.138;2023-04-08T01:59:12;9.13;;;6.90;;
20084;SDS011;10202;48.474;9.138;2023-04-08T02:01:41;8.52;;;6.53;;
20084;SDS011;10202;48.474;9.138;2023-04-08T02:04:13;10.05;;;7.28;;
20084;SDS011;10202;48.474;9.138;2023-04-08T02:06:38;10.43;;;7.32;;
20084;SDS011;10202;48.474;9.138;2023-04-08T02:09:06;9.43;;;7.18;;
20084;SDS011;10202;48.474;9.138;2023-04-08T02:11:35;12.27;;;8.18;;
20084;SDS011;10202;48.474;9.138;2023-04-08T02:14:01;12.30;;;8.02;;
20084;SDS011;10202;48.474;9.138;2023-04-08T02:16:33;12.75;;;7.05;;
20084;SDS011;10202;48.474;9.138;2023-04-08T02:22:34;10.30;;;8.07;;
20084;SDS011;10202;48.474;9.138;2023-04-08T02:25:07;10.98;;;7.70;;
20084;SDS011;10202;48.474;9.138;2023-04-08T02:27:35;10.85;;;7.55;;
20084;SDS011;10202;48.474;9.138;2023-04-08T02:30:04;13.70;;;9.50;;
20084;SDS011;10202;48.474;9.138;2023-04-08T02:32:34;11.93;;;8.70;;
20084;SDS011;10202;48.474;9.138;2023-04-08T02:35:03;15.88;;;9.73;;
20084;SDS011;10202;48.474;9.138;2023-04-08T02:37:30;13.05;;;8.90;;
20084;SDS011;10202;48.474;9.138;2023-04-08T02:39:59;12.65;;;8.43;;
20084;SDS011;10202;48.474;9.138;2023-04-08T02:42:24;13.55;;;9.40;;
20084;SDS011;10202;48.474;9.138;2023-04-08T02:44:52;12.48;;;8.90;;
20084;SDS011;10202;48.474;9.138;2023-04-08T02:47:21;12.13;;;8.98;;
20084;SDS011;10202;48.474;9.138;2023-04-08T02:49:52;14.20;;;9.48;;
20084;SDS011;10202;48.474;9.138;2023-04-08T02:52:21;12.90;;;9.77;;
20084;SDS011;10202;48.474;9.138;2023-04-08T02:54:47;14.18;;;9.98;;
20084;SDS011;10202;48.474;9.138;2023-04-08T02:57:15;14.00;;;9.52;;
20084;SDS011;10202;48.474;9.138;2023-04-08T02:59:46;12.25;;;8.88;;
20084;SDS011;10202;48.474;9.138;2023-04-08T03:02:11;13.38;;;9.07;;
20084;SDS011;10202;48.474;9.138;2023-04-08T03:04:37;11.35;;;9.05;;
20084;SDS011;10202;48.474;9.138;2023-04-08T03:07:07;13.27;;;9.52;;
20084;SDS011;10202;48.474;9.138;2023-04-08T03:09:37;13.60;;;9.27;;
20084;SDS011;10202;48.474;9.138;2023-04-08T03:12:05;13.13;;;9.50;;
20084;SDS011;10202;48.474;9.138;2023-04-08T03:14:35;14.02;;;9.45;;
20084;SDS011;10202;48.474;9.138;2023-04-08T03:17:03;13.57;;;9.30;;
20084;SDS011;10202;48.474;9.138;2023-04-08T03:19:33;13.10;;;9.20;;
20084;SDS011;10202;48.474;9.138;2023-04-08T03:21:59;15.48;;;9.85;;
20084;SDS011;10202;48.474;9.138;2023-04-08T03:24:26;15.30;;;10.20;;
20084;SDS011;10202;48.474;9.138;2023-04-08T03:26:54;15.50;;;10.00;;
20084;SDS011;10202;48.474;9.138;2023-04-08T03:29:20;14.25;;;9.68;;
20084;SDS011;10202;48.474;9.138;2023-04-08T03:31:48;11.88;;;8.25;;
20084;SDS011;10202;48.474;9.138;2023-04-08T03:34:16;13.13;;;8.95;;
20084;SDS011;10202;48.474;9.138;2023-04-08T03:36:47;13.73;;;9.05;;
20084;SDS011;10202;48.474;9.138;2023-04-08T03:39:17;14.27;;;9.20;;
20084;SDS011;10202;48.474;9.138;2023-04-08T03:41:43;14.98;;;9.48;;
20084;SDS011;10202;48.474;9.138;2023-04-08T03:44:08;14.65;;;9.82;;
20084;SDS011;10202;48.474;9.138;2023-04-08T03:46:36;15.07;;;9.45;;
20084;SDS011;10202;48.474;9.138;2023-04-08T03:49:04;13.65;;;9.02;;
20084;SDS011;10202;48.474;9.138;2023-04-08T03:51:34;13.07;;;9.10;;
20084;SDS011;10202;48.474;9.138;2023-04-08T03:54:00;13.23;;;9.15;;
20084;SDS011;10202;48.474;9.138;2023-04-08T03:56:25;13.75;;;9.25;;
20084;SDS011;10202;48.474;9.138;2023-04-08T03:58:51;12.43;;;8.93;;
20084;SDS011;10202;48.474;9.138;2023-04-08T04:01:18;14.52;;;9.52;;
20084;SDS011;10202;48.474;9.138;2023-04-08T04:03:46;13.00;;;9.40;;
20084;SDS011;10202;48.474;9.138;2023-04-08T04:06:14;13.93;;;10.02;;
20084;SDS011;10202;48.474;9.138;2023-04-08T04:08:45;14.70;;;9.95;;
20084;SDS011;10202;48.474;9.138;2023-04-08T04:11:10;15.35;;;9.63;;
20084;SDS011;10202;48.474;9.138;2023-04-08T04:13:41;14.73;;;10.13;;
20084;SDS011;10202;48.474;9.138;2023-04-08T04:16:14;14.43;;;10.10;;
20084;SDS011;10202;48.474;9.138;2023-04-08T04:18:42;15.27;;;10.68;;
20084;SDS011;10202;48.474;9.138;2023-04-08T04:21:10;14.20;;;10.00;;
20084;SDS011;10202;48.474;9.138;2023-04-08T04:23:40;13.40;;;9.38;;
20084;SDS011;10202;48.474;9.138;2023-04-08T04:26:11;15.43;;;10.25;;
20084;SDS011;10202;48.474;9.138;2023-04-08T04:28:37;17.73;;;9.95;;
20084;SDS011;10202;48.474;9.138;2023-04-08T04:31:03;13.82;;;9.18;;
20084;SDS011;10202;48.474;9.138;2023-04-08T04:33:31;13.10;;;10.02;;
20084;SDS011;10202;48.474;9.138;2023-04-08T04:35:59;13.02;;;9.15;;
20084;SDS011;10202;48.474;9.138;2023-04-08T04:38:27;15.80;;;10.18;;
20084;SDS011;10202;48.474;9.138;2023-04-08T04:40:54;14.27;;;9.70;;
20084;SDS011;10202;48.474;9.138;2023-04-08T04:43:23;17.88;;;9.63;;
20084;SDS011;10202;48.474;9.138;2023-04-08T04:45:51;15.85;;;10.32;;
20084;SDS011;10202;48.474;9.138;2023-04-08T04:48:16;13.55;;;9.48;;
20084;SDS011;10202;48.474;9.138;2023-04-08T04:50:42;13.90;;;9.73;;
20084;SDS011;10202;48.474;9.138;2023-04-08T04:53:12;13.20;;;9.07;;
20084;SDS011;10202;48.474;9.138;2023-04-08T04:55:37;13.20;;;9.07;;
20084;SDS011;10202;48.474;9.138;2023-04-08T04:58:05;12.90;;;9.20;;
20084;SDS011;10202;48.474;9.138;2023-04-08T05:00:33;15.07;;;9.38;;
20084;SDS011;10202;48.474;9.138;2023-04-08T05:02:59;16.98;;;8.98;;
20084;SDS011;10202;48.474;9.138;2023-04-08T05:05:26;12.48;;;8.65;;
20084;SDS011;10202;48.474;9.138;2023-04-08T05:07:52;13.23;;;8.95;;
20084;SDS011;10202;48.474;9.138;2023-04-08T05:10:22;12.90;;;9.30;;
20084;SDS011;10202;48.474;9.138;2023-04-08T05:12:53;14.00;;;8.10;;
20084;SDS011;10202;48.474;9.138;2023-04-08T05:15:18;14.10;;;9.73;;
20084;SDS011;10202;48.474;9.138;2023-04-08T05:17:45;15.48;;;10.10;;
20084;SDS011;10202;48.474;9.138;2023-04-08T05:20:10;15.48;;;10.70;;
20084;SDS011;10202;48.474;9.138;2023-04-08T05:22:38;15.23;;;10.27;;
20084;SDS011;10202;48.474;9.138;2023-04-08T05:25:08;18.52;;;11.82;;
20084;SDS011;10202;48.474;9.138;2023-04-08T05:27:35;13.77;;;9.60;;
20084;SDS011;10202;48.474;9.138;2023-04-08T05:30:04;15.40;;;10.30;;
20084;SDS011;10202;48.474;9.138;2023-04-08T05:32:31;18.38;;;10.73;;
20084;SDS011;10202;48.474;9.138;2023-04-08T05:34:56;17.95;;;11.65;;
20084;SDS011;10202;48.474;9.138;2023-04-08T05:37:33;15.50;;;10.38;;
20084;SDS011;10202;48.474;9.138;2023-04-08T05:40:04;14.35;;;10.40;;
20084;SDS011;10202;48.474;9.138;2023-04-08T05:42:34;15.65;;;10.65;;
20084;SDS011;10202;48.474;9.138;2023-04-08T05:45:01;16.48;;;11.00;;
20084;SDS011;10202;48.474;9.138;2023-04-08T05:47:30;14.88;;;10.40;;
20084;SDS011;10202;48.474;9.138;2023-04-08T05:49:55;16.35;;;10.85;;
20084;SDS011;10202;48.474;9.138;2023-04-08T05:52:23;15.77;;;10.30;;
20084;SDS011;10202;48.474;9.138;2023-04-08T05:54:54;17.70;;;11.57;;
20084;SDS011;10202;48.474;9.138;2023-04-08T05:57:28;17.25;;;11.38;;
20084;SDS011;10202;48.474;9.138;2023-04-08T05:59:58;20.88;;;11.80;;
20084;SDS011;10202;48.474;9.138;2023-04-08T06:02:23;18.02;;;11.88;;
20084;SDS011;10202;48.474;9.138;2023-04-08T06:04:53;18.70;;;11.52;;
20084;SDS011;10202;48.474;9.138;2023-04-08T06:07:21;17.90;;;11.70;;
20084;SDS011;10202;48.474;9.138;2023-04-08T06:09:47;17.92;;;11.75;;
20084;SDS011;10202;48.474;9.138;2023-04-08T06:12:15;17.27;;;11.15;;
20084;SDS011;10202;48.474;9.138;2023-04-08T06:14:43;17.80;;;12.02;;
20084;SDS011;10202;48.474;9.138;2023-04-08T06:17:11;19.70;;;12.60;;
20084;SDS011;10202;48.474;9.138;2023-04-08T06:19:42;18.17;;;12.18;;
20084;SDS011;10202;48.474;9.138;2023-04-08T06:22:12;16.17;;;11.57;;
20084;SDS011;10202;48.474;9.138;2023-04-08T06:24:40;17.75;;;12.10;;
20084;SDS011;10202;48.474;9.138;2023-04-08T06:27:08;20.70;;;12.43;;
20084;SDS011;10202;48.474;9.138;2023-04-08T06:29:38;18.60;;;12.00;;
20084;SDS011;10202;48.474;9.138;2023-04-08T06:32:08;18.55;;;11.98;;
20084;SDS011;10202;48.474;9.138;2023-04-08T06:34:38;17.50;;;11.60;;
20084;SDS011;10202;48.474;9.138;2023-04-08T06:37:06;17.83;;;11.95;;
20084;SDS011;10202;48.474;9.138;2023-04-08T06:39:32;21.63;;;13.10;;
20084;SDS011;10202;48.474;9.138;2023-04-08T06:41:58;17.67;;;12.43;;
20084;SDS011;10202;48.474;9.138;2023-04-08T06:44:47;22.02;;;14.85;;
20084;SDS011;10202;48.474;9.138;2023-04-08T06:47:15;17.35;;;12.55;;
20084;SDS011;10202;48.474;9.138;2023-04-08T06:49:41;16.30;;;11.70;;
20084;SDS011;10202;48.474;9.138;2023-04-08T06:52:09;20.70;;;12.48;;
20084;SDS011;10202;48.474;9.138;2023-04-08T06:54:40;16.95;;;11.50;;
20084;SDS011;10202;48.474;9.138;2023-04-08T06:57:08;17.60;;;11.98;;
20084;SDS011;10202;48.474;9.138;2023-04-08T06:59:34;17.88;;;11.27;;
20084;SDS011;10202;48.474;9.138;2023-04-08T07:02:02;16.15;;;11.32;;
20084;SDS011;10202;48.474;9.138;2023-04-08T07:04:32;14.77;;;10.10;;
20084;SDS011;10202;48.474;9.138;2023-04-08T07:06:59;15.77;;;10.57;;
20084;SDS011;10202;48.474;9.138;2023-04-08T07:09:28;15.07;;;10.60;;
20084;SDS011;10202;48.474;9.138;2023-04-08T07:11:56;16.70;;;10.35;;
20084;SDS011;10202;48.474;9.138;2023-04-08T07:14:22;15.80;;;10.40;;
20084;SDS011;10202;48.474;9.138;2023-04-08T07:16:50;14.10;;;10.10;;
20084;SDS011;10202;48.474;9.138;2023-04-08T07:19:20;15.05;;;10.70;;
20084;SDS011;10202;48.474;9.138;2023-04-08T07:21:48;14.95;;;10.38;;
20084;SDS011;10202;48.474;9.138;2023-04-08T07:24:14;13.15;;;9.50;;
20084;SDS011;10202;48.474;9.138;2023-04-08T07:26:40;12.57;;;8.65;;
20084;SDS011;10202;48.474;9.138;2023-04-08T07:29:05;15.85;;;8.95;;
20084;SDS011;10202;48.474;9.138;2023-04-08T07:31:36;13.20;;;9.55;;
20084;SDS011;10202;48.474;9.138;2023-04-08T07:34:01;18.02;;;9.55;;
20084;SDS011;10202;48.474;9.138;2023-04-08T07:36:27;11.23;;;8.52;;
20084;SDS011;10202;48.474;9.138;2023-04-08T07:38:54;10.43;;;8.05;;
20084;SDS011;10202;48.474;9.138;2023-04-08T07:41:21;11.52;;;8.15;;
20084;SDS011;10202;48.474;9.138;2023-04-08T07:43:49;11.25;;;8.70;;
20084;SDS011;10202;48.474;9.138;2023-04-08T07:46:15;13.15;;;8.23;;
20084;SDS011;10202;48.474;9.138;2023-04-08T07:48:40;13.82;;;9.20;;
20084;SDS011;10202;48.474;9.138;2023-04-08T07:51:08;13.20;;;9.57;;
20084;SDS011;10202;48.474;9.138;2023-04-08T07:53:37;14.13;;;10.13;;
20084;SDS011;10202;48.474;9.138;2023-04-08T07:56:12;15.48;;;10.38;;
20084;SDS011;10202;48.474;9.138;2023-04-08T07:58:42;13.80;;;9.93;;
20084;SDS011;10202;48.474;9.138;2023-04-08T08:01:14;17.08;;;10.80;;
20084;SDS011;10202;48.474;9.138;2023-04-08T08:03:47;15.93;;;10.95;;
20084;SDS011;10202;48.474;9.138;2023-04-08T08:06:17;14.60;;;10.55;;
20084;SDS011;10202;48.474;9.138;2023-04-08T08:08:43;17.38;;;10.82;;
20084;SDS011;10202;48.474;9.138;2023-04-08T08:11:08;14.57;;;10.77;;
20084;SDS011;10202;48.474;9.138;2023-04-08T08:13:36;17.10;;;11.52;;
20084;SDS011;10202;48.474;9.138;2023-04-08T08:16:05;18.85;;;10.75;;
20084;SDS011;10202;48.474;9.138;2023-04-08T08:18:33;21.67;;;12.90;;
20084;SDS011;10202;48.474;9.138;2023-04-08T08:21:00;27.80;;;15.50;;
20084;SDS011;10202;48.474;9.138;2023-04-08T08:23:30;16.30;;;9.52;;
20084;SDS011;10202;48.474;9.138;2023-04-08T08:26:02;17.83;;;10.20;;
20084;SDS011;10202;48.474;9.138;2023-04-08T08:28:36;15.00;;;7.93;;
20084;SDS011;10202;48.474;9.138;2023-04-08T08:31:02;10.70;;;8.35;;
20084;SDS011;10202;48.474;9.138;2023-04-08T08:33:30;17.25;;;9.13;;
20084;SDS011;10202;48.474;9.138;2023-04-08T08:36:00;10.32;;;8.02;;
20084;SDS011;10202;48.474;9.138;2023-04-08T08:38:44;11.32;;;8.13;;
20084;SDS011;10202;48.474;9.138;2023-04-08T08:41:12;13.25;;;8.77;;
20084;SDS011;10202;48.474;9.138;2023-04-08T08:43:39;11.75;;;8.77;;
20084;SDS011;10202;48.474;9.138;2023-04-08T08:46:09;20.52;;;11.38;;
20084;SDS011;10202;48.474;9.138;2023-04-08T08:48:37;9.23;;;7.50;;
20084;SDS011;10202;48.474;9.138;2023-04-08T08:51:09;14.20;;;9.60;;
20084;SDS011;10202;48.474;9.138;2023-04-08T08:53:36;14.50;;;9.20;;
20084;SDS011;10202;48.474;9.138;2023-04-08T08:56:02;10.30;;;8.07;;
20084;SDS011;10202;48.474;9.138;2023-04-08T08:58:31;12.18;;;8.25;;
20084;SDS011;10202;48.474;9.138;2023-04-08T09:00:59;21.67;;;10.23;;
20084;SDS011;10202;48.474;9.138;2023-04-08T09:03:25;9.95;;;7.88;;
20084;SDS011;10202;48.474;9.138;2023-04-08T09:05:52;12.60;;;9.20;;
20084;SDS011;10202;48.474;9.138;2023-04-08T09:08:25;9.85;;;8.02;;
20084;SDS011;10202;48.474;9.138;2023-04-08T09:10:55;10.27;;;8.30;;
20084;SDS011;10202;48.474;9.138;2023-04-08T09:13:51;9.23;;;7.60;;
20084;SDS011;10202;48.474;9.138;2023-04-08T09:16:17;12.00;;;8.10;;
20084;SDS011;10202;48.474;9.138;2023-04-08T09:18:44;13.30;;;9.32;;
20084;SDS011;10202;48.474;9.138;2023-04-08T09:21:13;13.70;;;8.40;;
20084;SDS011;10202;48.474;9.138;2023-04-08T09:26:15;13.30;;;8.98;;
20084;SDS011;10202;48.474;9.138;2023-04-08T09:28:42;15.50;;;7.78;;
20084;SDS011;10202;48.474;9.138;2023-04-08T09:31:24;24.70;;;14.30;;
20084;SDS011;10202;48.474;9.138;2023-04-08T09:33:58;12.48;;;8.30;;
20084;SDS011;10202;48.474;9.138;2023-04-08T09:36:26;25.80;;;15.20;;
20084;SDS011;10202;48.474;9.138;2023-04-08T09:38:52;17.15;;;10.55;;
20084;SDS011;10202;48.474;9.138;2023-04-08T09:41:21;10.30;;;8.02;;
20084;SDS011;10202;48.474;9.138;2023-04-08T09:43:52;11.52;;;8.32;;
20084;SDS011;10202;48.474;9.138;2023-04-08T09:47:07;11.15;;;8.20;;
20084;SDS011;10202;48.474;9.138;2023-04-08T09:52:19;10.75;;;8.30;;
20084;SDS011;10202;48.474;9.138;2023-04-08T09:55:09;13.63;;;9.98;;
20084;SDS011;10202;48.474;9.138;2023-04-08T10:00:13;11.85;;;8.10;;
20084;SDS011;10202;48.474;9.138;2023-04-08T10:05:36;11.60;;;8.38;;
20084;SDS011;10202;48.474;9.138;2023-04-08T10:08:05;9.82;;;8.15;;
20084;SDS011;10202;48.474;9.138;2023-04-08T10:10:33;14.07;;;9.30;;
20084;SDS011;10202;48.474;9.138;2023-04-08T10:13:07;13.15;;;8.93;;
20084;SDS011;10202;48.474;9.138;2023-04-08T10:15:36;13.55;;;9.32;;
20084;SDS011;10202;48.474;9.138;2023-04-08T10:27:59;12.38;;;8.65;;
20084;SDS011;10202;48.474;9.138;2023-04-08T10:33:22;11.93;;;9.00;;
20084;SDS011;10202;48.474;9.138;2023-04-08T10:38:33;10.25;;;8.50;;
20084;SDS011;10202;48.474;9.138;2023-04-08T10:41:05;11.40;;;9.48;;
20084;SDS011;10202;48.474;9.138;2023-04-08T10:43:33;10.32;;;8.55;;
20084;SDS011;10202;48.474;9.138;2023-04-08T10:46:01;13.02;;;9.23;;
20084;SDS011;10202;48.474;9.138;2023-04-08T10:48:33;13.43;;;9.80;;
20084;SDS011;10202;48.474;9.138;2023-04-08T10:50:59;12.07;;;8.82;;
20084;SDS011;10202;48.474;9.138;2023-04-08T10:58:32;11.82;;;9.57;;
20084;SDS011;10202;48.474;9.138;2023-04-08T11:01:04;12.82;;;9.82;;
20084;SDS011;10202;48.474;9.138;2023-04-08T11:03:34;12.13;;;9.90;;
20084;SDS011;10202;48.474;9.138;2023-04-08T11:06:01;11.65;;;9.60;;
20084;SDS011;10202;48.474;9.138;2023-04-08T11:08:27;11.98;;;9.57;;
20084;SDS011;10202;48.474;9.138;2023-04-08T11:10:54;13.07;;;9.77;;
20084;SDS011;10202;48.474;9.138;2023-04-08T11:13:20;14.13;;;10.30;;
20084;SDS011;10202;48.474;9.138;2023-04-08T11:15:49;16.23;;;9.93;;
20084;SDS011;10202;48.474;9.138;2023-04-08T11:18:17;13.07;;;9.90;;
20084;SDS011;10202;48.474;9.138;2023-04-08T11:20:43;14.73;;;10.38;;
20084;SDS011;10202;48.474;9.138;2023-04-08T11:23:14;12.20;;;9.15;;
20084;SDS011;10202;48.474;9.138;2023-04-08T11:25:40;14.20;;;10.23;;
20084;SDS011;10202;48.474;9.138;2023-04-08T11:28:09;12.82;;;10.32;;
20084;SDS011;10202;48.474;9.138;2023-04-08T11:30:37;14.32;;;11.15;;
20084;SDS011;10202;48.474;9.138;2023-04-08T11:33:09;14.45;;;11.10;;
20084;SDS011;10202;48.474;9.138;2023-04-08T11:35:44;14.73;;;11.32;;
20084;SDS011;10202;48.474;9.138;2023-04-08T11:38:12;16.88;;;11.45;;
20084;SDS011;10202;48.474;9.138;2023-04-08T11:40:37;16.50;;;11.25;;
20084;SDS011;10202;48.474;9.138;2023-04-08T11:43:12;17.13;;;12.60;;
20084;SDS011;10202;48.474;9.138;2023-04-08T11:45:41;20.38;;;14.10;;
20084;SDS011;10202;48.474;9.138;2023-04-08T11:48:11;33.22;;;17.70;;
20084;SDS011;10202;48.474;9.138;2023-04-08T11:50:41;30.58;;;16.35;;
20084;SDS011;10202;48.474;9.138;2023-04-08T11:53:19;38.08;;;18.45;;
20084;SDS011;10202;48.474;9.138;2023-04-08T11:55:46;22.30;;;13.25;;
20084;SDS011;10202;48.474;9.138;2023-04-08T11:58:12;15.50;;;12.02;;
20084;SDS011;10202;48.474;9.138;2023-04-08T12:00:41;16.52;;;11.63;;
20084;SDS011;10202;48.474;9.138;2023-04-08T12:03:09;15.68;;;11.57;;
20084;SDS011;10202;48.474;9.138;2023-04-08T12:05:40;16.58;;;12.25;;
20084;SDS011;10202;48.474;9.138;2023-04-08T12:08:08;18.45;;;12.13;;
20084;SDS011;10202;48.474;9.138;2023-04-08T12:10:37;15.60;;;11.48;;
20084;SDS011;10202;48.474;9.138;2023-04-08T12:13:05;14.98;;;11.55;;
20084;SDS011;10202;48.474;9.138;2023-04-08T12:15:30;16.10;;;11.95;;
20084;SDS011;10202;48.474;9.138;2023-04-08T12:17:57;16.73;;;12.60;;
20084;SDS011;10202;48.474;9.138;2023-04-08T12:20:24;16.05;;;11.77;;
20084;SDS011;10202;48.474;9.138;2023-04-08T12:22:55;15.40;;;11.75;;
20084;SDS011;10202;48.474;9.138;2023-04-08T12:25:27;15.60;;;11.75;;
20084;SDS011;10202;48.474;9.138;2023-04-08T12:27:57;18.27;;;11.77;;
20084;SDS011;10202;48.474;9.138;2023-04-08T12:30:28;26.83;;;17.98;;
20084;SDS011;10202;48.474;9.138;2023-04-08T12:32:58;19.27;;;12.70;;
20084;SDS011;10202;48.474;9.138;2023-04-08T12:35:26;15.52;;;11.55;;
20084;SDS011;10202;48.474;9.138;2023-04-08T12:37:56;17.67;;;12.07;;
20084;SDS011;10202;48.474;9.138;2023-04-08T12:40:24;17.15;;;12.82;;
20084;SDS011;10202;48.474;9.138;2023-04-08T12:42:52;15.40;;;11.60;;
20084;SDS011;10202;48.474;9.138;2023-04-08T12:45:18;16.80;;;12.60;;
20084;SDS011;10202;48.474;9.138;2023-04-08T12:47:46;14.63;;;11.30;;
20084;SDS011;10202;48.474;9.138;2023-04-08T12:50:17;14.85;;;11.35;;
20084;SDS011;10202;48.474;9.138;2023-04-08T12:52:47;15.55;;;11.10;;
20084;SDS011;10202;48.474;9.138;2023-04-08T12:55:18;17.13;;;11.43;;
20084;SDS011;10202;48.474;9.138;2023-04-08T12:57:44;15.18;;;11.63;;
20084;SDS011;10202;48.474;9.138;2023-04-08T13:00:09;16.80;;;11.35;;
20084;SDS011;10202;48.474;9.138;2023-04-08T13:02:36;14.90;;;11.50;;
20084;SDS011;10202;48.474;9.138;2023-04-08T13:05:01;16.50;;;12.10;;
20084;SDS011;10202;48.474;9.138;2023-04-08T13:07:32;15.43;;;11.48;;
20084;SDS011;10202;48.474;9.138;2023-04-08T13:10:00;17.63;;;11.90;;
20084;SDS011;10202;48.474;9.138;2023-04-08T13:12:28;15.77;;;11.57;;
20084;SDS011;10202;48.474;9.138;2023-04-08T13:14:54;16.27;;;11.80;;
20084;SDS011;10202;48.474;9.138;2023-04-08T13:17:25;15.05;;;11.77;;
20084;SDS011;10202;48.474;9.138;2023-04-08T13:19:52;14.40;;;11.05;;
20084;SDS011;10202;48.474;9.138;2023-04-08T13:22:22;17.73;;;12.25;;
20084;SDS011;10202;48.474;9.138;2023-04-08T13:24:52;15.48;;;11.60;;
20084;SDS011;10202;48.474;9.138;2023-04-08T13:27:20;19.45;;;12.57;;
20084;SDS011;10202;48.474;9.138;2023-04-08T13:29:46;16.88;;;12.77;;
20084;SDS011;10202;48.474;9.138;2023-04-08T13:32:14;27.48;;;17.77;;
20084;SDS011;10202;48.474;9.138;2023-04-08T13:34:42;23.33;;;14.50;;
20084;SDS011;10202;48.474;9.138;2023-04-08T13:37:09;16.58;;;12.45;;
20084;SDS011;10202;48.474;9.138;2023-04-08T13:39:40;18.52;;;13.82;;
20084;SDS011;10202;48.474;9.138;2023-04-08T13:42:10;35.00;;;21.13;;
20084;SDS011;10202;48.474;9.138;2023-04-08T13:44:36;30.92;;;17.42;;
20084;SDS011;10202;48.474;9.138;2023-04-08T13:47:02;44.35;;;22.73;;
20084;SDS011;10202;48.474;9.138;2023-04-08T13:49:27;22.13;;;13.85;;
20084;SDS011;10202;48.474;9.138;2023-04-08T13:51:53;17.15;;;13.55;;
20084;SDS011;10202;48.474;9.138;2023-04-08T13:54:26;31.83;;;17.63;;
20084;SDS011;10202;48.474;9.138;2023-04-08T13:56:54;18.73;;;13.88;;
20084;SDS011;10202;48.474;9.138;2023-04-08T13:59:22;15.80;;;11.75;;
20084;SDS011;10202;48.474;9.138;2023-04-08T14:01:48;20.25;;;12.05;;
20084;SDS011;10202;48.474;9.138;2023-04-08T14:04:21;17.33;;;12.95;;
20084;SDS011;10202;48.474;9.138;2023-04-08T14:06:48;16.58;;;12.88;;
20084;SDS011;10202;48.474;9.138;2023-04-08T14:09:20;22.55;;;12.85;;
20084;SDS011;10202;48.474;9.138;2023-04-08T14:11:46;19.92;;;14.10;;
20084;SDS011;10202;48.474;9.138;2023-04-08T14:14:13;17.17;;;12.45;;
20084;SDS011;10202;48.474;9.138;2023-04-08T14:16:39;16.67;;;11.15;;
20084;SDS011;10202;48.474;9.138;2023-04-08T14:19:05;16.33;;;12.00;;
20084;SDS011;10202;48.474;9.138;2023-04-08T14:21:32;17.30;;;12.43;;
20084;SDS011;10202;48.474;9.138;2023-04-08T14:24:06;20.20;;;12.98;;
20084;SDS011;10202;48.474;9.138;2023-04-08T14:26:32;15.60;;;11.95;;
20084;SDS011;10202;48.474;9.138;2023-04-08T14:29:03;18.17;;;13.40;;
20084;SDS011;10202;48.474;9.138;2023-04-08T14:31:35;16.05;;;11.82;;
20084;SDS011;10202;48.474;9.138;2023-04-08T14:34:03;17.58;;;12.85;;
20084;SDS011;10202;48.474;9.138;2023-04-08T14:36:29;19.63;;;13.40;;
20084;SDS011;10202;48.474;9.138;2023-04-08T14:38:57;19.55;;;12.90;;
20084;SDS011;10202;48.474;9.138;2023-04-08T14:41:27;18.15;;;12.25;;
20084;SDS011;10202;48.474;9.138;2023-04-08T14:43:55;15.18;;;11.80;;
20084;SDS011;10202;48.474;9.138;2023-04-08T14:46:25;17.17;;;12.35;;
20084;SDS011;10202;48.474;9.138;2023-04-08T14:48:54;15.75;;;11.82;;
20084;SDS011;10202;48.474;9.138;2023-04-08T14:51:19;17.17;;;12.38;;
20084;SDS011;10202;48.474;9.138;2023-04-08T14:53:47;16.90;;;12.05;;
20084;SDS011;10202;48.474;9.138;2023-04-08T14:56:15;14.85;;;11.55;;
20084;SDS011;10202;48.474;9.138;2023-04-08T14:58:46;25.50;;;17.38;;
20084;SDS011;10202;48.474;9.138;2023-04-08T15:01:19;30.83;;;19.27;;
20084;SDS011;10202;48.474;9.138;2023-04-08T15:03:52;21.20;;;14.77;;
20084;SDS011;10202;48.474;9.138;2023-04-08T15:06:20;24.73;;;16.30;;
20084;SDS011;10202;48.474;9.138;2023-04-08T15:08:48;20.45;;;14.55;;
20084;SDS011;10202;48.474;9.138;2023-04-08T15:11:18;20.25;;;13.13;;
20084;SDS011;10202;48.474;9.138;2023-04-08T15:13:45;17.25;;;12.45;;
20084;SDS011;10202;48.474;9.138;2023-04-08T15:16:13;15.70;;;12.20;;
20084;SDS011;10202;48.474;9.138;2023-04-08T15:18:39;15.90;;;12.48;;